BAW4C UHPP-UHSS
Flight info
| Callsign | BAW4C |
|---|---|
| Flight time | 2h 3m |
| Altitude | 36000 |
| Route | SAMIK4M SAMIK T577 UB P176 NAMUL P175 ROMUK R810 BELNA DCT LEKPA LEKPA4 |
| Aircraft | A320/M-SDE3FGHIRWY/LB1 |
Departure
| Time | 2026-04-28 14:21 |
|---|---|
| Airport | Yelizovo Airport (UHPP) |
Arrival
| Time | 2026-04-28 16:25 |
|---|---|
| Airport | Yuzhno-Sakhalinsk International Airport (UHSS) |
| Time | Latitude | Longitude | Altitude | Speed | Heading |
|---|---|---|---|---|---|
| 2026-04-28 14:08 | 53.17062 | 158.42802 | 214 ft | 0 kts | 59° |
| 2026-04-28 14:16 | 53.17062 | 158.42825 | 212 ft | 5 kts | 92° |
| 2026-04-28 14:16 | 53.17068 | 158.42909 | 213 ft | 10 kts | 64° |
| 2026-04-28 14:16 | 53.17104 | 158.43029 | 213 ft | 13 kts | 62° |
| 2026-04-28 14:16 | 53.17153 | 158.43164 | 215 ft | 14 kts | 59° |
| 2026-04-28 14:17 | 53.17208 | 158.43317 | 215 ft | 16 kts | 59° |
| 2026-04-28 14:17 | 53.17269 | 158.43491 | 214 ft | 18 kts | 60° |
| 2026-04-28 14:17 | 53.17336 | 158.43683 | 213 ft | 20 kts | 60° |
| 2026-04-28 14:17 | 53.17409 | 158.43893 | 215 ft | 22 kts | 60° |
| 2026-04-28 14:18 | 53.17481 | 158.44126 | 212 ft | 23 kts | 68° |
| 2026-04-28 14:18 | 53.17572 | 158.44251 | 212 ft | 17 kts | 350° |
| 2026-04-28 14:18 | 53.17696 | 158.44207 | 213 ft | 19 kts | 347° |
| 2026-04-28 14:18 | 53.17839 | 158.44155 | 212 ft | 23 kts | 347° |
| 2026-04-28 14:19 | 53.18002 | 158.44095 | 211 ft | 25 kts | 347° |
| 2026-04-28 14:19 | 53.18160 | 158.44037 | 208 ft | 18 kts | 348° |
| 2026-04-28 14:19 | 53.18294 | 158.43996 | 212 ft | 20 kts | 358° |
| 2026-04-28 14:19 | 53.18341 | 158.44128 | 210 ft | 10 kts | 137° |
| 2026-04-28 14:20 | 53.18300 | 158.44125 | 210 ft | 6 kts | 192° |
| 2026-04-28 14:20 | 53.18242 | 158.44156 | 210 ft | 24 kts | 156° |
| 2026-04-28 14:20 | 53.17866 | 158.44416 | 212 ft | 90 kts | 158° |
| 2026-04-28 14:20 | 53.17119 | 158.44932 | 214 ft | 140 kts | 158° |
| 2026-04-28 14:21 | 53.16100 | 158.45626 | 373 ft | 168 kts | 158° |
| 2026-04-28 14:21 | 53.15012 | 158.46365 | 959 ft | 170 kts | 158° |
| 2026-04-28 14:21 | 53.13922 | 158.47110 | 1572 ft | 172 kts | 158° |
| 2026-04-28 14:21 | 53.12807 | 158.47878 | 2087 ft | 175 kts | 158° |
| 2026-04-28 14:22 | 53.11675 | 158.48692 | 2581 ft | 178 kts | 156° |
| 2026-04-28 14:22 | 53.10533 | 158.49553 | 3082 ft | 182 kts | 155° |
| 2026-04-28 14:22 | 53.09379 | 158.50464 | 3573 ft | 185 kts | 155° |
| 2026-04-28 14:22 | 53.08208 | 158.51385 | 4094 ft | 187 kts | 155° |
| 2026-04-28 14:23 | 53.07015 | 158.52319 | 4557 ft | 193 kts | 156° |
| 2026-04-28 14:23 | 53.05763 | 158.53231 | 5000 ft | 199 kts | 158° |
| 2026-04-28 14:23 | 53.04457 | 158.54088 | 5479 ft | 204 kts | 160° |
| 2026-04-28 14:23 | 53.03060 | 158.54346 | 5927 ft | 208 kts | 193° |
| 2026-04-28 14:24 | 53.01698 | 158.53523 | 6435 ft | 211 kts | 210° |
| 2026-04-28 14:24 | 53.00583 | 158.51856 | 6850 ft | 223 kts | 237° |
| 2026-04-28 14:24 | 52.99999 | 158.49428 | 7346 ft | 233 kts | 262° |
| 2026-04-28 14:24 | 52.99984 | 158.46636 | 7671 ft | 255 kts | 276° |
| 2026-04-28 14:25 | 53.00246 | 158.43600 | 8025 ft | 274 kts | 279° |
| 2026-04-28 14:25 | 53.00568 | 158.40441 | 8674 ft | 280 kts | 279° |
| 2026-04-28 14:25 | 53.00860 | 158.37221 | 9389 ft | 284 kts | 277° |
| 2026-04-28 14:25 | 53.01102 | 158.33931 | 9863 ft | 289 kts | 276° |
| 2026-04-28 14:26 | 53.01295 | 158.30607 | 9985 ft | 294 kts | 275° |
| 2026-04-28 14:26 | 53.01463 | 158.27076 | 10012 ft | 311 kts | 274° |
| 2026-04-28 14:26 | 53.01610 | 158.23508 | 10013 ft | 315 kts | 274° |
| 2026-04-28 14:26 | 53.01746 | 158.19931 | 10008 ft | 312 kts | 273° |
| 2026-04-28 14:27 | 53.01878 | 158.16342 | 10003 ft | 306 kts | 273° |
| 2026-04-28 14:27 | 53.02006 | 158.12804 | 10005 ft | 304 kts | 273° |
| 2026-04-28 14:27 | 53.02135 | 158.09300 | 10004 ft | 301 kts | 274° |
| 2026-04-28 14:27 | 53.02263 | 158.05871 | 10010 ft | 302 kts | 273° |
| 2026-04-28 14:28 | 53.02390 | 158.02456 | 10005 ft | 297 kts | 274° |
| 2026-04-28 14:28 | 53.02520 | 157.99010 | 10004 ft | 295 kts | 274° |
| 2026-04-28 14:28 | 53.02650 | 157.95595 | 10005 ft | 296 kts | 274° |
| 2026-04-28 14:28 | 53.02779 | 157.92141 | 10006 ft | 299 kts | 273° |
| 2026-04-28 14:29 | 53.02905 | 157.88730 | 10009 ft | 295 kts | 273° |
| 2026-04-28 14:29 | 53.03029 | 157.85330 | 10008 ft | 297 kts | 273° |
| 2026-04-28 14:29 | 53.03153 | 157.81920 | 10009 ft | 300 kts | 273° |
| 2026-04-28 14:29 | 53.03278 | 157.78513 | 10016 ft | 297 kts | 273° |
| 2026-04-28 14:30 | 53.03399 | 157.75093 | 10006 ft | 295 kts | 273° |
| 2026-04-28 14:30 | 53.03515 | 157.71640 | 10004 ft | 296 kts | 273° |
| 2026-04-28 14:30 | 53.03630 | 157.68219 | 10006 ft | 295 kts | 273° |
| 2026-04-28 14:30 | 53.03748 | 157.64777 | 10007 ft | 301 kts | 273° |
| 2026-04-28 14:31 | 53.03779 | 157.61293 | 10015 ft | 312 kts | 265° |
| 2026-04-28 14:31 | 53.03403 | 157.57649 | 10015 ft | 325 kts | 255° |
| 2026-04-28 14:31 | 53.02827 | 157.54090 | 10010 ft | 314 kts | 255° |
| 2026-04-28 14:31 | 53.02254 | 157.50532 | 10204 ft | 324 kts | 255° |
| 2026-04-28 14:32 | 53.01661 | 157.46853 | 10709 ft | 334 kts | 255° |
| 2026-04-28 14:32 | 53.01054 | 157.43103 | 11332 ft | 339 kts | 255° |
| 2026-04-28 14:32 | 53.00441 | 157.39309 | 11974 ft | 342 kts | 255° |
| 2026-04-28 14:32 | 52.99822 | 157.35477 | 12607 ft | 346 kts | 255° |
| 2026-04-28 14:33 | 52.99196 | 157.31604 | 13233 ft | 349 kts | 255° |
| 2026-04-28 14:33 | 52.98565 | 157.27708 | 13854 ft | 351 kts | 255° |
| 2026-04-28 14:33 | 52.97927 | 157.23789 | 14445 ft | 354 kts | 255° |
| 2026-04-28 14:33 | 52.97279 | 157.19833 | 15003 ft | 357 kts | 255° |
| 2026-04-28 14:34 | 52.95959 | 157.11825 | 16108 ft | 362 kts | 255° |
| 2026-04-28 14:34 | 52.95295 | 157.07777 | 16644 ft | 365 kts | 255° |
| 2026-04-28 14:34 | 52.94852 | 157.05086 | 16994 ft | 367 kts | 255° |
| 2026-04-28 14:35 | 52.93947 | 156.99601 | 17690 ft | 370 kts | 255° |
| 2026-04-28 14:35 | 52.93261 | 156.95463 | 18202 ft | 373 kts | 255° |
| 2026-04-28 14:35 | 52.92568 | 156.91298 | 18699 ft | 376 kts | 255° |
| 2026-04-28 14:35 | 52.91867 | 156.87105 | 19214 ft | 379 kts | 255° |
| 2026-04-28 14:36 | 52.91161 | 156.82881 | 19716 ft | 382 kts | 255° |
| 2026-04-28 14:36 | 52.90453 | 156.78631 | 20210 ft | 384 kts | 255° |
| 2026-04-28 14:36 | 52.89739 | 156.74346 | 20680 ft | 387 kts | 255° |
| 2026-04-28 14:36 | 52.89016 | 156.70034 | 21119 ft | 390 kts | 254° |
| 2026-04-28 14:37 | 52.88286 | 156.65696 | 21547 ft | 392 kts | 254° |
| 2026-04-28 14:37 | 52.87550 | 156.61329 | 21967 ft | 395 kts | 254° |
| 2026-04-28 14:37 | 52.87059 | 156.58421 | 22241 ft | 397 kts | 254° |
| 2026-04-28 14:37 | 52.86311 | 156.54015 | 22651 ft | 399 kts | 254° |
| 2026-04-28 14:38 | 52.85554 | 156.49582 | 23055 ft | 402 kts | 254° |
| 2026-04-28 14:38 | 52.84792 | 156.45127 | 23457 ft | 404 kts | 254° |
| 2026-04-28 14:38 | 52.84021 | 156.40644 | 23844 ft | 406 kts | 254° |
| 2026-04-28 14:38 | 52.83245 | 156.36133 | 24234 ft | 409 kts | 254° |
| 2026-04-28 14:39 | 52.82469 | 156.31598 | 24600 ft | 411 kts | 254° |
| 2026-04-28 14:39 | 52.81707 | 156.27032 | 24961 ft | 413 kts | 257° |
| 2026-04-28 14:39 | 52.81218 | 156.22336 | 25306 ft | 416 kts | 261° |
| 2026-04-28 14:39 | 52.80781 | 156.17601 | 25660 ft | 418 kts | 261° |
| 2026-04-28 14:40 | 52.80336 | 156.12842 | 26012 ft | 420 kts | 261° |
| 2026-04-28 14:40 | 52.80034 | 156.09680 | 26238 ft | 421 kts | 261° |
| 2026-04-28 14:40 | 52.79415 | 156.03265 | 26678 ft | 424 kts | 261° |
| 2026-04-28 14:40 | 52.78952 | 155.98438 | 27004 ft | 426 kts | 261° |
| 2026-04-28 14:41 | 52.78482 | 155.93582 | 27326 ft | 428 kts | 261° |
| 2026-04-28 14:41 | 52.78005 | 155.88714 | 27651 ft | 431 kts | 261° |
| 2026-04-28 14:41 | 52.77522 | 155.83820 | 27958 ft | 433 kts | 261° |
| 2026-04-28 14:41 | 52.77039 | 155.78907 | 28277 ft | 435 kts | 261° |
| 2026-04-28 14:42 | 52.76560 | 155.74034 | 28580 ft | 437 kts | 261° |
| 2026-04-28 14:42 | 52.76069 | 155.69076 | 28888 ft | 439 kts | 261° |
| 2026-04-28 14:42 | 52.75568 | 155.64096 | 29186 ft | 441 kts | 261° |
| 2026-04-28 14:42 | 52.75060 | 155.59092 | 29483 ft | 443 kts | 261° |
| 2026-04-28 14:43 | 52.74551 | 155.54080 | 29865 ft | 442 kts | 261° |
| 2026-04-28 14:43 | 52.74044 | 155.49082 | 30280 ft | 441 kts | 261° |
| 2026-04-28 14:43 | 52.73536 | 155.44092 | 30680 ft | 440 kts | 260° |
| 2026-04-28 14:43 | 52.73025 | 155.39110 | 31084 ft | 440 kts | 260° |
| 2026-04-28 14:44 | 52.72514 | 155.34145 | 31458 ft | 439 kts | 260° |
| 2026-04-28 14:44 | 52.72001 | 155.29188 | 31848 ft | 438 kts | 260° |
| 2026-04-28 14:44 | 52.71489 | 155.24224 | 32219 ft | 438 kts | 260° |
| 2026-04-28 14:44 | 52.70978 | 155.19284 | 32594 ft | 437 kts | 260° |
| 2026-04-28 14:45 | 52.70464 | 155.14348 | 32958 ft | 436 kts | 260° |
| 2026-04-28 14:45 | 52.69946 | 155.09424 | 33331 ft | 435 kts | 260° |
| 2026-04-28 14:45 | 52.69423 | 155.04508 | 33698 ft | 435 kts | 260° |
| 2026-04-28 14:45 | 52.68900 | 154.99609 | 34039 ft | 434 kts | 260° |
| 2026-04-28 14:46 | 52.68378 | 154.94708 | 34371 ft | 433 kts | 260° |
| 2026-04-28 14:46 | 52.67861 | 154.89884 | 34683 ft | 433 kts | 260° |
| 2026-04-28 14:46 | 52.67337 | 154.85003 | 34997 ft | 432 kts | 260° |
| 2026-04-28 14:46 | 52.66814 | 154.80127 | 35286 ft | 432 kts | 260° |
| 2026-04-28 14:47 | 52.66289 | 154.75262 | 35570 ft | 431 kts | 260° |
| 2026-04-28 14:47 | 52.65760 | 154.70401 | 35847 ft | 431 kts | 260° |
| 2026-04-28 14:47 | 52.65228 | 154.65534 | 35983 ft | 432 kts | 260° |
| 2026-04-28 14:48 | 52.64138 | 154.55709 | 36009 ft | 438 kts | 256° |
| 2026-04-28 14:48 | 52.61944 | 154.46365 | 36009 ft | 439 kts | 244° |
| 2026-04-28 14:49 | 52.59248 | 154.37335 | 36009 ft | 440 kts | 244° |
| 2026-04-28 14:49 | 52.56561 | 154.28300 | 36009 ft | 440 kts | 244° |
| 2026-04-28 14:50 | 52.53873 | 154.19277 | 36011 ft | 440 kts | 244° |
| 2026-04-28 14:50 | 52.51171 | 154.10262 | 36014 ft | 440 kts | 244° |
| 2026-04-28 14:51 | 52.48481 | 154.01314 | 36018 ft | 440 kts | 244° |
| 2026-04-28 14:51 | 52.45764 | 153.92305 | 36021 ft | 440 kts | 244° |
| 2026-04-28 14:52 | 52.43042 | 153.83312 | 36023 ft | 441 kts | 244° |
| 2026-04-28 14:52 | 52.40317 | 153.74321 | 36025 ft | 441 kts | 243° |
| 2026-04-28 14:53 | 52.37570 | 153.65348 | 36027 ft | 441 kts | 243° |
| 2026-04-28 14:53 | 52.34817 | 153.56372 | 36028 ft | 441 kts | 243° |
| 2026-04-28 14:54 | 52.32066 | 153.47400 | 36029 ft | 441 kts | 243° |
| 2026-04-28 14:54 | 52.29304 | 153.38443 | 36030 ft | 441 kts | 243° |
| 2026-04-28 14:55 | 52.26533 | 153.29502 | 36029 ft | 441 kts | 243° |
| 2026-04-28 14:55 | 52.23769 | 153.20625 | 36031 ft | 441 kts | 243° |
| 2026-04-28 14:56 | 52.20984 | 153.11712 | 36030 ft | 441 kts | 243° |
| 2026-04-28 14:56 | 52.18195 | 153.02808 | 36029 ft | 441 kts | 243° |
| 2026-04-28 14:57 | 52.15409 | 152.93907 | 36030 ft | 441 kts | 243° |
| 2026-04-28 14:57 | 52.12613 | 152.85023 | 36029 ft | 441 kts | 243° |
| 2026-04-28 14:58 | 52.09800 | 152.76161 | 36029 ft | 441 kts | 243° |
| 2026-04-28 14:58 | 52.06980 | 152.67316 | 36026 ft | 441 kts | 243° |
| 2026-04-28 14:59 | 52.04168 | 152.58477 | 36026 ft | 440 kts | 243° |
| 2026-04-28 14:59 | 52.01347 | 152.49648 | 36024 ft | 440 kts | 243° |
| 2026-04-28 15:00 | 51.98518 | 152.40845 | 36024 ft | 440 kts | 242° |
| 2026-04-28 15:00 | 51.95684 | 152.32047 | 36024 ft | 440 kts | 242° |
| 2026-04-28 15:01 | 51.92859 | 152.23312 | 36024 ft | 440 kts | 242° |
| 2026-04-28 15:01 | 51.90005 | 152.14539 | 36026 ft | 441 kts | 242° |
| 2026-04-28 15:02 | 51.87136 | 152.05765 | 36028 ft | 441 kts | 242° |
| 2026-04-28 15:02 | 51.84265 | 151.97003 | 36027 ft | 441 kts | 242° |
| 2026-04-28 15:03 | 51.81400 | 151.88249 | 36028 ft | 441 kts | 242° |
| 2026-04-28 15:03 | 51.78529 | 151.79502 | 36028 ft | 440 kts | 242° |
| 2026-04-28 15:04 | 51.75650 | 151.70780 | 36025 ft | 440 kts | 242° |
| 2026-04-28 15:04 | 51.72762 | 151.62077 | 36023 ft | 440 kts | 242° |
| 2026-04-28 15:05 | 51.69869 | 151.53384 | 36024 ft | 440 kts | 242° |
| 2026-04-28 15:05 | 51.66963 | 151.44697 | 36025 ft | 440 kts | 242° |
| 2026-04-28 15:06 | 51.64048 | 151.36023 | 36026 ft | 440 kts | 242° |
| 2026-04-28 15:06 | 51.61131 | 151.27359 | 36026 ft | 440 kts | 242° |
| 2026-04-28 15:07 | 51.58215 | 151.18697 | 36025 ft | 440 kts | 242° |
| 2026-04-28 15:07 | 51.55290 | 151.10052 | 36026 ft | 440 kts | 242° |
| 2026-04-28 15:08 | 51.52384 | 151.01475 | 36025 ft | 440 kts | 242° |
| 2026-04-28 15:08 | 51.49447 | 150.92848 | 36026 ft | 440 kts | 241° |
| 2026-04-28 15:09 | 51.46500 | 150.84247 | 36025 ft | 440 kts | 241° |
| 2026-04-28 15:09 | 51.43547 | 150.75651 | 36025 ft | 440 kts | 241° |
| 2026-04-28 15:10 | 51.40595 | 150.67063 | 36024 ft | 440 kts | 241° |
| 2026-04-28 15:10 | 51.37636 | 150.58483 | 36025 ft | 440 kts | 241° |
| 2026-04-28 15:11 | 51.34665 | 150.49925 | 36024 ft | 440 kts | 241° |
| 2026-04-28 15:11 | 51.31683 | 150.41374 | 36024 ft | 440 kts | 241° |
| 2026-04-28 15:12 | 51.28704 | 150.32834 | 36023 ft | 440 kts | 241° |
| 2026-04-28 15:12 | 51.25717 | 150.24308 | 36024 ft | 440 kts | 240° |
| 2026-04-28 15:13 | 51.22718 | 150.15794 | 36023 ft | 440 kts | 240° |
| 2026-04-28 15:13 | 51.19721 | 150.07286 | 36024 ft | 440 kts | 240° |
| 2026-04-28 15:14 | 51.16578 | 149.98929 | 36023 ft | 440 kts | 233° |
| 2026-04-28 15:14 | 51.12779 | 149.91285 | 36023 ft | 440 kts | 231° |
| 2026-04-28 15:15 | 51.08963 | 149.83673 | 36022 ft | 440 kts | 231° |
| 2026-04-28 15:15 | 51.05148 | 149.76065 | 36023 ft | 440 kts | 231° |
| 2026-04-28 15:16 | 51.01332 | 149.68463 | 36023 ft | 440 kts | 231° |
| 2026-04-28 15:16 | 50.97529 | 149.60927 | 36024 ft | 440 kts | 231° |
| 2026-04-28 15:17 | 50.93700 | 149.53347 | 36024 ft | 440 kts | 231° |
| 2026-04-28 15:17 | 50.89865 | 149.45780 | 36024 ft | 440 kts | 231° |
| 2026-04-28 15:18 | 50.86029 | 149.38232 | 36024 ft | 440 kts | 231° |
| 2026-04-28 15:18 | 50.82183 | 149.30695 | 36023 ft | 440 kts | 231° |
| 2026-04-28 15:19 | 50.78328 | 149.23176 | 36024 ft | 440 kts | 231° |
| 2026-04-28 15:19 | 50.74472 | 149.15665 | 36024 ft | 440 kts | 231° |
| 2026-04-28 15:20 | 50.70613 | 149.08167 | 36024 ft | 440 kts | 231° |
| 2026-04-28 15:20 | 50.66747 | 149.00671 | 36024 ft | 440 kts | 231° |
| 2026-04-28 15:21 | 50.62883 | 148.93193 | 36023 ft | 440 kts | 231° |
| 2026-04-28 15:21 | 50.59031 | 148.85788 | 36024 ft | 440 kts | 231° |
| 2026-04-28 15:22 | 50.55153 | 148.78334 | 36023 ft | 440 kts | 231° |
| 2026-04-28 15:22 | 50.51277 | 148.70889 | 36023 ft | 440 kts | 231° |
| 2026-04-28 15:23 | 50.47390 | 148.63462 | 36024 ft | 440 kts | 231° |
| 2026-04-28 15:23 | 50.43497 | 148.56052 | 36024 ft | 440 kts | 231° |
| 2026-04-28 15:24 | 50.39598 | 148.48647 | 36024 ft | 440 kts | 230° |
| 2026-04-28 15:24 | 50.35699 | 148.41261 | 36024 ft | 440 kts | 230° |
| 2026-04-28 15:25 | 50.31792 | 148.33879 | 36024 ft | 440 kts | 230° |
| 2026-04-28 15:25 | 50.27881 | 148.26512 | 36024 ft | 440 kts | 230° |
| 2026-04-28 15:26 | 50.23962 | 148.19155 | 36023 ft | 440 kts | 230° |
| 2026-04-28 15:26 | 50.20038 | 148.11819 | 36024 ft | 440 kts | 230° |
| 2026-04-28 15:27 | 50.16137 | 148.04541 | 36024 ft | 440 kts | 230° |
| 2026-04-28 15:27 | 50.12210 | 147.97224 | 36024 ft | 440 kts | 230° |
| 2026-04-28 15:28 | 50.08275 | 147.89918 | 36024 ft | 440 kts | 230° |
| 2026-04-28 15:28 | 50.04336 | 147.82625 | 36024 ft | 440 kts | 230° |
| 2026-04-28 15:29 | 50.00396 | 147.75341 | 36024 ft | 440 kts | 230° |
| 2026-04-28 15:29 | 49.96446 | 147.68066 | 36024 ft | 440 kts | 230° |
| 2026-04-28 15:30 | 49.93162 | 147.62032 | 36024 ft | 440 kts | 230° |
| 2026-04-28 15:30 | 49.89203 | 147.54793 | 36024 ft | 440 kts | 230° |
| 2026-04-28 15:31 | 49.85241 | 147.47559 | 36024 ft | 440 kts | 230° |
| 2026-04-28 15:31 | 49.81283 | 147.40331 | 36024 ft | 440 kts | 230° |
| 2026-04-28 15:32 | 49.77314 | 147.33112 | 36024 ft | 440 kts | 230° |
| 2026-04-28 15:32 | 49.73342 | 147.25910 | 36024 ft | 440 kts | 230° |
| 2026-04-28 15:33 | 49.69357 | 147.18734 | 36024 ft | 440 kts | 229° |
| 2026-04-28 15:33 | 49.65369 | 147.11565 | 36023 ft | 440 kts | 229° |
| 2026-04-28 15:34 | 49.61380 | 147.04395 | 36024 ft | 440 kts | 229° |
| 2026-04-28 15:34 | 49.57387 | 146.97246 | 36024 ft | 440 kts | 229° |
| 2026-04-28 15:35 | 49.53387 | 146.90110 | 36023 ft | 440 kts | 229° |
| 2026-04-28 15:35 | 49.47384 | 146.79420 | 36024 ft | 440 kts | 229° |
| 2026-04-28 15:36 | 49.43380 | 146.72308 | 36024 ft | 440 kts | 229° |
| 2026-04-28 15:36 | 49.39369 | 146.65208 | 36023 ft | 440 kts | 229° |
| 2026-04-28 15:37 | 49.35353 | 146.58126 | 36024 ft | 440 kts | 229° |
| 2026-04-28 15:37 | 49.31335 | 146.51045 | 36024 ft | 440 kts | 229° |
| 2026-04-28 15:38 | 49.27309 | 146.43984 | 36024 ft | 440 kts | 229° |
| 2026-04-28 15:38 | 49.23278 | 146.36926 | 36023 ft | 440 kts | 229° |
| 2026-04-28 15:39 | 49.19244 | 146.29877 | 36024 ft | 440 kts | 229° |
| 2026-04-28 15:39 | 49.15206 | 146.22852 | 36024 ft | 440 kts | 229° |
| 2026-04-28 15:40 | 49.11162 | 146.15836 | 36024 ft | 440 kts | 229° |
| 2026-04-28 15:40 | 49.07120 | 146.08828 | 36024 ft | 440 kts | 229° |
| 2026-04-28 15:41 | 49.03072 | 146.01831 | 36023 ft | 440 kts | 229° |
| 2026-04-28 15:41 | 48.99016 | 145.94858 | 36024 ft | 440 kts | 229° |
| 2026-04-28 15:42 | 48.94955 | 145.87886 | 36024 ft | 440 kts | 229° |
| 2026-04-28 15:42 | 48.90928 | 145.80968 | 36023 ft | 440 kts | 229° |
| 2026-04-28 15:43 | 48.86863 | 145.74018 | 36024 ft | 440 kts | 228° |
| 2026-04-28 15:43 | 48.82785 | 145.67089 | 36024 ft | 440 kts | 228° |
| 2026-04-28 15:44 | 48.78707 | 145.60172 | 36024 ft | 440 kts | 228° |
| 2026-04-28 15:44 | 48.74629 | 145.53256 | 36024 ft | 440 kts | 228° |
| 2026-04-28 15:45 | 48.70552 | 145.46347 | 36023 ft | 440 kts | 228° |
| 2026-04-28 15:45 | 48.66462 | 145.39452 | 36024 ft | 440 kts | 228° |
| 2026-04-28 15:46 | 48.62378 | 145.32566 | 36024 ft | 440 kts | 228° |
| 2026-04-28 15:46 | 48.58282 | 145.25696 | 36024 ft | 440 kts | 228° |
| 2026-04-28 15:47 | 48.54180 | 145.18842 | 36024 ft | 440 kts | 228° |
| 2026-04-28 15:47 | 48.50078 | 145.11997 | 36024 ft | 440 kts | 228° |
| 2026-04-28 15:48 | 48.45974 | 145.05163 | 36024 ft | 440 kts | 228° |
| 2026-04-28 15:48 | 48.41867 | 144.98335 | 36024 ft | 440 kts | 228° |
| 2026-04-28 15:49 | 48.40050 | 144.94650 | 36021 ft | 439 kts | 240° |
| 2026-04-28 15:49 | 48.38545 | 144.90654 | 36023 ft | 439 kts | 240° |
| 2026-04-28 15:49 | 48.35558 | 144.82650 | 36021 ft | 439 kts | 241° |
| 2026-04-28 15:50 | 48.32598 | 144.74691 | 36021 ft | 439 kts | 241° |
| 2026-04-28 15:50 | 48.29615 | 144.66676 | 36022 ft | 439 kts | 241° |
| 2026-04-28 15:51 | 48.26628 | 144.58672 | 36023 ft | 439 kts | 240° |
| 2026-04-28 15:51 | 48.23634 | 144.50699 | 35448 ft | 438 kts | 240° |
| 2026-04-28 15:52 | 48.22133 | 144.46732 | 34933 ft | 436 kts | 240° |
| 2026-04-28 15:52 | 48.20620 | 144.42741 | 34055 ft | 443 kts | 240° |
| 2026-04-28 15:52 | 48.19110 | 144.38768 | 33785 ft | 435 kts | 240° |
| 2026-04-28 15:52 | 48.17634 | 144.34885 | 33286 ft | 424 kts | 240° |
| 2026-04-28 15:53 | 48.16187 | 144.31074 | 32554 ft | 418 kts | 240° |
| 2026-04-28 15:53 | 48.14764 | 144.27313 | 31801 ft | 412 kts | 240° |
| 2026-04-28 15:53 | 48.13358 | 144.23600 | 31048 ft | 407 kts | 240° |
| 2026-04-28 15:53 | 48.11955 | 144.19950 | 30294 ft | 402 kts | 240° |
| 2026-04-28 15:54 | 48.10565 | 144.16343 | 29550 ft | 397 kts | 240° |
| 2026-04-28 15:54 | 48.09216 | 144.12829 | 28823 ft | 393 kts | 240° |
| 2026-04-28 15:54 | 48.07868 | 144.09306 | 28107 ft | 388 kts | 240° |
| 2026-04-28 15:54 | 48.06535 | 144.05808 | 27464 ft | 385 kts | 240° |
| 2026-04-28 15:55 | 48.05213 | 144.02341 | 26845 ft | 383 kts | 240° |
| 2026-04-28 15:55 | 48.03898 | 143.98902 | 26224 ft | 382 kts | 240° |
| 2026-04-28 15:55 | 48.02569 | 143.95438 | 25597 ft | 385 kts | 240° |
| 2026-04-28 15:55 | 48.01235 | 143.91970 | 24962 ft | 382 kts | 240° |
| 2026-04-28 15:56 | 47.99928 | 143.88567 | 24388 ft | 373 kts | 240° |
| 2026-04-28 15:56 | 47.98652 | 143.85263 | 24083 ft | 367 kts | 240° |
| 2026-04-28 15:56 | 47.97379 | 143.81971 | 23705 ft | 365 kts | 240° |
| 2026-04-28 15:56 | 47.96116 | 143.78706 | 23329 ft | 362 kts | 240° |
| 2026-04-28 15:57 | 47.94861 | 143.75464 | 22951 ft | 360 kts | 240° |
| 2026-04-28 15:57 | 47.93612 | 143.72244 | 22575 ft | 358 kts | 240° |
| 2026-04-28 15:57 | 47.92367 | 143.69042 | 22193 ft | 355 kts | 240° |
| 2026-04-28 15:57 | 47.91127 | 143.65866 | 21819 ft | 353 kts | 240° |
| 2026-04-28 15:58 | 47.89895 | 143.62712 | 21449 ft | 351 kts | 240° |
| 2026-04-28 15:58 | 47.88671 | 143.59571 | 21069 ft | 349 kts | 240° |
| 2026-04-28 15:58 | 47.87458 | 143.56453 | 20697 ft | 347 kts | 240° |
| 2026-04-28 15:58 | 47.86251 | 143.53352 | 20322 ft | 345 kts | 240° |
| 2026-04-28 15:59 | 47.85049 | 143.50267 | 19946 ft | 343 kts | 240° |
| 2026-04-28 15:59 | 47.84256 | 143.48235 | 19697 ft | 342 kts | 240° |
| 2026-04-28 15:59 | 47.82665 | 143.44155 | 19194 ft | 339 kts | 240° |
| 2026-04-28 15:59 | 47.81483 | 143.41130 | 18816 ft | 337 kts | 240° |
| 2026-04-28 16:00 | 47.80304 | 143.38122 | 18443 ft | 335 kts | 240° |
| 2026-04-28 16:00 | 47.79135 | 143.35147 | 18059 ft | 331 kts | 240° |
| 2026-04-28 16:00 | 47.77986 | 143.32229 | 17690 ft | 331 kts | 240° |
| 2026-04-28 16:00 | 47.76808 | 143.29242 | 17309 ft | 330 kts | 240° |
| 2026-04-28 16:01 | 47.75666 | 143.26349 | 16938 ft | 328 kts | 240° |
| 2026-04-28 16:01 | 47.74512 | 143.23421 | 16567 ft | 328 kts | 240° |
| 2026-04-28 16:01 | 47.73364 | 143.20512 | 16180 ft | 325 kts | 240° |
| 2026-04-28 16:01 | 47.72220 | 143.17623 | 15808 ft | 323 kts | 239° |
| 2026-04-28 16:02 | 47.71082 | 143.14753 | 15438 ft | 322 kts | 239° |
| 2026-04-28 16:02 | 47.69950 | 143.11899 | 15068 ft | 320 kts | 239° |
| 2026-04-28 16:02 | 47.68823 | 143.09059 | 14688 ft | 318 kts | 239° |
| 2026-04-28 16:02 | 47.67702 | 143.06233 | 14312 ft | 317 kts | 239° |
| 2026-04-28 16:03 | 47.66585 | 143.03422 | 13942 ft | 316 kts | 239° |
| 2026-04-28 16:03 | 47.65472 | 143.00624 | 13559 ft | 314 kts | 239° |
| 2026-04-28 16:03 | 47.64363 | 142.97835 | 13186 ft | 313 kts | 239° |
| 2026-04-28 16:03 | 47.63257 | 142.95054 | 12810 ft | 312 kts | 239° |
| 2026-04-28 16:04 | 47.62154 | 142.92290 | 12434 ft | 311 kts | 239° |
| 2026-04-28 16:04 | 47.61055 | 142.89530 | 12058 ft | 310 kts | 239° |
| 2026-04-28 16:04 | 47.59959 | 142.86791 | 11694 ft | 308 kts | 239° |
| 2026-04-28 16:04 | 47.58871 | 142.84084 | 11444 ft | 303 kts | 239° |
| 2026-04-28 16:05 | 47.57800 | 142.81415 | 11193 ft | 300 kts | 239° |
| 2026-04-28 16:05 | 47.56737 | 142.78763 | 10931 ft | 299 kts | 239° |
| 2026-04-28 16:05 | 47.55680 | 142.76122 | 10692 ft | 298 kts | 239° |
| 2026-04-28 16:05 | 47.54621 | 142.73493 | 10444 ft | 297 kts | 239° |
| 2026-04-28 16:06 | 47.53537 | 142.70902 | 10190 ft | 295 kts | 233° |
| 2026-04-28 16:06 | 47.52069 | 142.68811 | 9942 ft | 293 kts | 213° |
| 2026-04-28 16:06 | 47.50244 | 142.67574 | 9815 ft | 288 kts | 195° |
| 2026-04-28 16:06 | 47.48264 | 142.67257 | 9688 ft | 287 kts | 176° |
| 2026-04-28 16:07 | 47.46317 | 142.67731 | 9564 ft | 288 kts | 169° |
| 2026-04-28 16:07 | 47.44357 | 142.68303 | 9440 ft | 287 kts | 169° |
| 2026-04-28 16:07 | 47.40441 | 142.69427 | 9190 ft | 286 kts | 169° |
| 2026-04-28 16:08 | 47.38489 | 142.69983 | 9064 ft | 286 kts | 169° |
| 2026-04-28 16:08 | 47.36539 | 142.70541 | 8939 ft | 285 kts | 169° |
| 2026-04-28 16:08 | 47.34593 | 142.71105 | 8813 ft | 285 kts | 169° |
| 2026-04-28 16:09 | 47.30737 | 142.72217 | 8434 ft | 282 kts | 169° |
| 2026-04-28 16:09 | 47.28802 | 142.72692 | 8306 ft | 282 kts | 176° |
| 2026-04-28 16:09 | 47.26844 | 142.72707 | 8182 ft | 281 kts | 181° |
| 2026-04-28 16:10 | 47.22935 | 142.72600 | 7933 ft | 280 kts | 181° |
| 2026-04-28 16:10 | 47.20984 | 142.72549 | 7808 ft | 280 kts | 181° |
| 2026-04-28 16:10 | 47.17096 | 142.72452 | 7557 ft | 279 kts | 181° |
| 2026-04-28 16:11 | 47.13221 | 142.72355 | 7307 ft | 278 kts | 181° |
| 2026-04-28 16:11 | 47.09362 | 142.72259 | 7054 ft | 277 kts | 181° |
| 2026-04-28 16:12 | 47.05515 | 142.72163 | 6755 ft | 275 kts | 181° |
| 2026-04-28 16:12 | 47.03606 | 142.72115 | 6441 ft | 274 kts | 181° |
| 2026-04-28 16:13 | 46.99811 | 142.72017 | 5827 ft | 271 kts | 181° |
| 2026-04-28 16:13 | 46.97944 | 142.72310 | 5513 ft | 270 kts | 165° |
| 2026-04-28 16:13 | 46.94379 | 142.71882 | 4881 ft | 264 kts | 218° |
| 2026-04-28 16:14 | 46.93326 | 142.67144 | 4238 ft | 260 kts | 290° |
| 2026-04-28 16:14 | 46.95740 | 142.63374 | 3562 ft | 261 kts | 336° |
| 2026-04-28 16:15 | 46.99284 | 142.62797 | 2929 ft | 260 kts | 0° |
| 2026-04-28 16:15 | 47.01095 | 142.62826 | 2618 ft | 260 kts | 0° |
| 2026-04-28 16:15 | 47.02895 | 142.62869 | 2326 ft | 258 kts | 0° |
| 2026-04-28 16:16 | 47.06239 | 142.62949 | 2083 ft | 221 kts | 0° |
| 2026-04-28 16:16 | 47.07718 | 142.62985 | 2005 ft | 206 kts | 0° |
| 2026-04-28 16:17 | 47.10262 | 142.63049 | 2005 ft | 166 kts | 0° |
| 2026-04-28 16:17 | 47.11361 | 142.63355 | 2004 ft | 158 kts | 24° |
| 2026-04-28 16:17 | 47.12233 | 142.64297 | 2007 ft | 156 kts | 50° |
| 2026-04-28 16:17 | 47.12619 | 142.65179 | 2009 ft | 155 kts | 67° |
| 2026-04-28 16:18 | 47.12835 | 142.66718 | 2014 ft | 155 kts | 92° |
| 2026-04-28 16:18 | 47.12620 | 142.68258 | 2033 ft | 154 kts | 104° |
| 2026-04-28 16:18 | 47.12430 | 142.69810 | 2013 ft | 154 kts | 108° |
| 2026-04-28 16:18 | 47.11904 | 142.71163 | 2018 ft | 154 kts | 134° |
| 2026-04-28 16:19 | 47.11033 | 142.72041 | 2014 ft | 153 kts | 160° |
| 2026-04-28 16:19 | 47.10012 | 142.72270 | 2041 ft | 147 kts | 182° |
| 2026-04-28 16:19 | 47.08996 | 142.72244 | 2018 ft | 145 kts | 182° |
| 2026-04-28 16:19 | 47.07985 | 142.72219 | 2015 ft | 145 kts | 182° |
| 2026-04-28 16:20 | 47.06978 | 142.72194 | 2016 ft | 145 kts | 182° |
| 2026-04-28 16:20 | 47.05971 | 142.72169 | 2016 ft | 145 kts | 182° |
| 2026-04-28 16:20 | 47.04964 | 142.72144 | 2015 ft | 145 kts | 182° |
| 2026-04-28 16:20 | 47.03958 | 142.72120 | 2016 ft | 145 kts | 182° |
| 2026-04-28 16:21 | 47.02951 | 142.72095 | 2015 ft | 145 kts | 182° |
| 2026-04-28 16:21 | 47.01944 | 142.72070 | 2017 ft | 145 kts | 182° |
| 2026-04-28 16:21 | 47.00948 | 142.72046 | 2016 ft | 145 kts | 182° |
| 2026-04-28 16:21 | 46.99936 | 142.72021 | 1926 ft | 145 kts | 182° |
| 2026-04-28 16:22 | 46.98930 | 142.71997 | 1775 ft | 144 kts | 182° |
| 2026-04-28 16:22 | 46.97938 | 142.71973 | 1720 ft | 140 kts | 183° |
| 2026-04-28 16:22 | 46.96980 | 142.71949 | 1514 ft | 136 kts | 184° |
| 2026-04-28 16:22 | 46.96036 | 142.71926 | 1310 ft | 136 kts | 183° |
| 2026-04-28 16:23 | 46.95091 | 142.71903 | 1102 ft | 136 kts | 182° |
| 2026-04-28 16:23 | 46.94146 | 142.71880 | 901 ft | 136 kts | 181° |
| 2026-04-28 16:23 | 46.93196 | 142.71857 | 700 ft | 136 kts | 181° |
| 2026-04-28 16:23 | 46.92247 | 142.71833 | 528 ft | 137 kts | 181° |
| 2026-04-28 16:24 | 46.91296 | 142.71812 | 346 ft | 136 kts | 180° |
| 2026-04-28 16:24 | 46.90350 | 142.71789 | 161 ft | 136 kts | 181° |
| 2026-04-28 16:24 | 46.89414 | 142.71747 | 66 ft | 124 kts | 180° |
| 2026-04-28 16:24 | 46.88841 | 142.71739 | 63 ft | 55 kts | 180° |
| 2026-04-28 16:25 | 46.88685 | 142.71781 | 64 ft | 4 kts | 101° |
| 2026-04-28 16:25 | 46.88698 | 142.71853 | 59 ft | 11 kts | 79° |
| 2026-04-28 16:25 | 46.88700 | 142.71975 | 67 ft | 10 kts | 91° |
| 2026-04-28 16:25 | 46.88700 | 142.71983 | 67 ft | 1 kts | 91° |
| 2026-04-28 16:26 | 46.88699 | 142.72013 | 67 ft | 4 kts | 91° |
| 2026-04-28 16:26 | 46.88699 | 142.72016 | 67 ft | 1 kts | 91° |
| 2026-04-28 16:26 | 46.88698 | 142.72050 | 67 ft | 5 kts | 92° |
| 2026-04-28 16:26 | 46.88697 | 142.72110 | 67 ft | 4 kts | 91° |
| 2026-04-28 16:27 | 46.88699 | 142.72164 | 67 ft | 7 kts | 89° |
| 2026-04-28 16:27 | 46.88698 | 142.72180 | 67 ft | 2 kts | 98° |
| 2026-04-28 16:27 | 46.88698 | 142.72221 | 67 ft | 0 kts | 91° |
| 2026-04-28 16:28 | 46.88698 | 142.72225 | 67 ft | 0 kts | 91° |